Time;durP1;ratioP1;P1;durP2;ratioP2;P2;SDS_P1;SDS_P2;PMS_P1;PMS_P2;Temp;Humidity;BMP_temperature;BMP_pressure;BME280_temperature;BME280_humidity;BME280_pressure;Samples;Min_cycle;Max_cycle;Signal;HPM_P1;HPM_P2
2022/01/19 00:01:26;;;;;;;6.92;4.45;;;1.10;83.10;;;;;;1905273;74;21290;-44
2022/01/19 00:03:56;;;;;;;6.30;4.33;;;1.10;83.60;;;;;;1905384;74;21027;-44
2022/01/19 00:06:25;;;;;;;5.67;3.37;;;1.10;83.90;;;;;;1905334;75;21020;-43
2022/01/19 00:08:54;;;;;;;4.40;3.58;;;1.20;84.30;;;;;;1905372;75;21149;-44
2022/01/19 00:11:24;;;;;;;3.65;3.08;;;1.30;84.40;;;;;;1905236;75;21085;-44
2022/01/19 00:13:53;;;;;;;6.28;4.12;;;1.30;83.40;;;;;;1905254;75;21070;-44
2022/01/19 00:16:22;;;;;;;5.60;3.95;;;1.30;83.30;;;;;;1905354;75;21031;-43
2022/01/19 00:18:52;;;;;;;4.90;3.40;;;1.30;83.10;;;;;;1905309;75;21040;-43
2022/01/19 00:21:21;;;;;;;5.85;3.62;;;1.20;82.40;;;;;;1905291;75;21043;-44
2022/01/19 00:23:50;;;;;;;3.95;3.30;;;1.10;82.00;;;;;;1905285;75;21035;-43
2022/01/19 00:26:20;;;;;;;4.87;3.72;;;1.00;83.00;;;;;;1905321;75;21051;-44
2022/01/19 00:28:49;;;;;;;2.58;2.37;;;0.90;82.20;;;;;;1905377;75;21073;-44
2022/01/19 00:31:18;;;;;;;7.65;2.80;;;0.80;82.10;;;;;;1905409;75;21414;-44
2022/01/19 00:33:47;;;;;;;2.27;2.08;;;0.60;82.20;;;;;;1905313;75;20996;-44
2022/01/19 00:36:17;;;;;;;3.20;2.47;;;0.60;82.70;;;;;;1905298;75;21096;-43
2022/01/19 00:38:47;;;;;;;3.20;2.87;;;0.50;83.20;;;;;;1914614;74;21055;-44
2022/01/19 00:41:16;;;;;;;4.92;2.80;;;0.50;83.40;;;;;;1924692;74;21023;-45
2022/01/19 00:43:45;;;;;;;3.30;2.42;;;0.50;83.00;;;;;;1924770;74;21494;-44
2022/01/19 00:46:14;;;;;;;3.70;2.85;;;0.50;83.40;;;;;;1924645;74;21023;-44
2022/01/19 00:48:44;;;;;;;2.60;2.37;;;0.40;83.60;;;;;;1924693;74;21085;-44
2022/01/19 00:51:13;;;;;;;5.78;2.98;;;0.50;82.80;;;;;;1924651;74;21115;-44
2022/01/19 00:53:42;;;;;;;3.75;2.33;;;0.40;83.20;;;;;;1924734;74;21511;-45
2022/01/19 00:56:12;;;;;;;4.12;2.12;;;0.40;82.00;;;;;;1924693;74;21019;-44
2022/01/19 00:58:41;;;;;;;4.35;2.55;;;0.30;82.10;;;;;;1924774;74;21019;-44
2022/01/19 01:01:10;;;;;;;2.42;2.22;;;0.30;80.70;;;;;;1924519;74;21085;-44
2022/01/19 01:03:40;;;;;;;2.60;2.15;;;0.20;81.60;;;;;;1924646;74;20991;-44
2022/01/19 01:06:09;;;;;;;5.95;2.70;;;0.10;81.40;;;;;;1924680;74;21026;-44
2022/01/19 01:08:39;;;;;;;4.12;2.20;;;0.00;81.80;;;;;;1924695;74;20987;-44
2022/01/19 01:11:08;;;;;;;2.58;2.37;;;0.00;82.60;;;;;;1924720;74;21092;-44
2022/01/19 01:19:04;;;;;;;2.35;1.92;;;0.00;83.00;;;;;;1924804;74;21027;-45
2022/01/19 01:21:35;;;;;;;4.30;2.80;;;0.00;83.10;;;;;;1924585;74;21505;-45
2022/01/19 01:24:06;;;;;;;3.30;2.67;;;0.00;83.80;;;;;;1924634;74;21159;-44
2022/01/19 01:26:36;;;;;;;4.75;2.45;;;0.10;83.70;;;;;;1924627;74;21034;-44
2022/01/19 01:29:06;;;;;;;3.05;2.30;;;0.20;84.40;;;;;;1924671;74;21039;-44
2022/01/19 01:31:35;;;;;;;1.65;1.52;;;0.20;83.20;;;;;;1924638;74;20999;-44
2022/01/19 01:34:05;;;;;;;2.70;2.05;;;0.20;82.30;;;;;;1924610;74;21019;-44
2022/01/19 01:36:34;;;;;;;6.55;3.08;;;0.20;83.00;;;;;;1924631;74;21022;-44
2022/01/19 01:39:03;;;;;;;2.92;2.42;;;0.20;83.30;;;;;;1924466;74;21101;-44
2022/01/19 01:41:33;;;;;;;2.52;2.12;;;0.20;82.60;;;;;;1924564;74;21152;-43
2022/01/19 01:44:04;;;;;;;3.90;2.02;;;0.10;81.60;;;;;;1920532;74;21055;-43
2022/01/19 01:46:43;;;;;;;2.90;2.30;;;0.10;81.40;;;;;;1924731;74;21046;-43
2022/01/19 01:49:08;;;;;;;2.92;2.05;;;0.00;82.10;;;;;;1923599;74;21019;-43
2022/01/19 01:54:24;;;;;;;4.92;3.22;;;0.00;83.00;;;;;;1924593;74;21098;-44
2022/01/19 01:56:55;;;;;;;4.35;3.42;;;0.00;83.00;;;;;;1924694;74;21074;-44
2022/01/19 01:59:24;;;;;;;6.62;2.70;;;0.10;83.60;;;;;;1924540;74;21081;-45
2022/01/19 02:02:11;;;;;;;3.27;2.60;;;0.20;84.20;;;;;;1924687;74;21089;-44
2022/01/19 02:04:41;;;;;;;3.87;2.80;;;0.20;84.10;;;;;;1924660;74;21018;-44
2022/01/19 02:07:32;;;;;;;4.00;2.83;;;0.40;84.30;;;;;;1924612;74;21018;-44
2022/01/19 02:10:00;;;;;;;4.90;3.72;;;0.50;84.80;;;;;;1923611;74;21064;-44
2022/01/19 02:23:47;;;;;;;4.40;3.70;;;0.70;83.10;;;;;;1924714;74;21038;-44
2022/01/19 02:26:18;;;;;;;3.60;2.67;;;0.70;82.80;;;;;;1923941;74;21077;-44
2022/01/19 02:29:01;;;;;;;3.42;2.70;;;0.60;82.80;;;;;;1923965;74;21035;-44
2022/01/19 02:40:12;;;;;;;6.22;3.20;;;0.60;84.50;;;;;;1918346;74;21063;-43
2022/01/19 02:43:03;;;;;;;3.75;2.80;;;0.70;84.50;;;;;;1905277;75;21028;-44
2022/01/19 02:50:46;;;;;;;4.95;3.22;;;0.70;83.40;;;;;;1905267;75;21081;-44
2022/01/19 02:53:16;;;;;;;3.30;2.70;;;0.60;82.60;;;;;;1905393;75;21035;-44
2022/01/19 02:55:46;;;;;;;4.47;3.05;;;0.50;83.00;;;;;;1905394;74;21125;-43
2022/01/19 02:58:19;;;;;;;5.05;3.72;;;0.50;83.40;;;;;;1905295;75;20999;-44
2022/01/19 03:09:05;;;;;;;3.30;2.52;;;0.50;84.60;;;;;;1905324;75;21050;-44
2022/01/19 03:11:36;;;;;;;4.37;2.90;;;0.50;84.60;;;;;;1905401;74;21089;-43
2022/01/19 03:14:08;;;;;;;7.22;3.37;;;0.60;85.10;;;;;;1905419;75;21595;-43
2022/01/19 03:16:37;;;;;;;5.05;2.92;;;0.70;84.90;;;;;;1905282;75;21015;-43
2022/01/19 03:19:08;;;;;;;3.58;2.67;;;0.70;84.60;;;;;;1905328;75;21023;-43
2022/01/19 03:21:37;;;;;;;3.85;2.65;;;0.70;84.50;;;;;;1905328;74;21474;-43
2022/01/19 03:24:07;;;;;;;3.55;2.65;;;0.70;84.50;;;;;;1905445;75;21024;-44
2022/01/19 03:26:37;;;;;;;3.45;2.95;;;0.70;84.80;;;;;;1905264;75;20995;-43
2022/01/19 03:29:14;;;;;;;3.77;3.37;;;0.80;84.70;;;;;;1903155;74;21094;-43
2022/01/19 03:31:43;;;;;;;4.62;3.52;;;0.80;85.10;;;;;;1905286;75;21119;-43
2022/01/19 03:34:13;;;;;;;5.50;4.08;;;0.80;84.90;;;;;;1905205;75;20996;-43
2022/01/19 03:36:44;;;;;;;7.45;4.22;;;0.90;85.30;;;;;;1905423;75;21137;-43
2022/01/19 03:39:14;;;;;;;5.78;3.22;;;1.00;86.00;;;;;;1905232;74;21457;-43
2022/01/19 03:41:44;;;;;;;4.85;3.62;;;0.90;84.80;;;;;;1905242;74;21090;-43
2022/01/19 03:44:13;;;;;;;4.42;3.67;;;0.90;84.60;;;;;;1905276;75;21062;-44
2022/01/19 03:46:55;;;;;;;3.58;3.20;;;0.90;85.00;;;;;;1905247;75;21027;-43
2022/01/19 03:49:23;;;;;;;4.10;3.08;;;0.90;84.70;;;;;;1904243;74;21120;-44
2022/01/19 03:51:45;;;;;;;10.95;5.70;;;0.90;83.80;;;;;;1904615;74;21110;-43
2022/01/19 03:54:14;;;;;;;6.50;4.15;;;0.80;84.10;;;;;;1905357;75;21028;-43
2022/01/19 03:56:44;;;;;;;5.12;3.58;;;0.80;84.30;;;;;;1905423;75;21046;-44
2022/01/19 03:59:13;;;;;;;4.05;3.65;;;0.70;84.10;;;;;;1905179;75;21289;-44
2022/01/19 04:01:42;;;;;;;16.15;9.38;;;0.70;84.70;;;;;;1905382;74;21454;-43
2022/01/19 04:04:29;;;;;;;6.72;5.92;;;0.80;84.20;;;;;;1905339;75;21047;-43
2022/01/19 04:07:07;;;;;;;18.90;13.48;;;0.70;83.40;;;;;;1903808;74;21078;-43
2022/01/19 04:09:33;;;;;;;9.20;7.40;;;0.70;82.40;;;;;;1904801;74;21167;-43
2022/01/19 04:12:03;;;;;;;6.70;4.67;;;0.60;83.30;;;;;;1905307;74;21023;-43
2022/01/19 04:14:33;;;;;;;8.30;6.78;;;0.50;82.60;;;;;;1905192;74;20996;-44
2022/01/19 04:17:04;;;;;;;3.90;3.35;;;0.50;84.40;;;;;;1905379;74;21019;-44
2022/01/19 04:22:15;;;;;;;3.98;3.00;;;0.50;84.30;;;;;;1903152;74;21108;-43
2022/01/19 04:24:46;;;;;;;4.03;3.30;;;0.50;84.80;;;;;;1905353;75;21097;-43
2022/01/19 04:29:56;;;;;;;5.65;3.92;;;0.70;85.00;;;;;;1904535;74;21551;-44
2022/01/19 04:32:30;;;;;;;8.28;4.85;;;0.80;84.60;;;;;;1904959;74;21097;-43
2022/01/19 04:34:53;;;;;;;7.08;4.33;;;0.90;85.10;;;;;;1904759;74;21015;-43
2022/01/19 04:37:34;;;;;;;6.28;4.25;;;1.00;85.10;;;;;;1905360;75;21028;-44
2022/01/19 04:46:00;;;;;;;4.35;3.50;;;1.30;83.70;;;;;;1905424;74;21027;-44
2022/01/19 05:05:23;;;;;;;5.08;3.33;;;1.00;84.20;;;;;;1903061;74;21038;-44
2022/01/19 05:15:42;;;;;;;4.28;3.15;;;0.90;83.40;;;;;;1905298;75;21106;-43
2022/01/19 05:18:13;;;;;;;4.45;3.15;;;0.80;82.70;;;;;;1905297;75;21134;-43
2022/01/19 05:20:43;;;;;;;3.83;3.35;;;0.80;82.90;;;;;;1905235;75;21019;-48
2022/01/19 05:23:16;;;;;;;3.27;2.67;;;0.70;83.70;;;;;;1904915;74;21155;-45
2022/01/19 05:25:46;;;;;;;3.20;2.67;;;0.70;84.30;;;;;;1905323;75;21537;-46
2022/01/19 05:28:17;;;;;;;8.73;4.05;;;0.80;84.40;;;;;;1904621;74;21007;-46
2022/01/19 05:30:46;;;;;;;4.80;3.40;;;0.80;84.00;;;;;;1905223;75;21004;-46
2022/01/19 05:33:16;;;;;;;6.28;3.67;;;0.80;83.90;;;;;;1905403;75;21031;-45
2022/01/19 05:35:45;;;;;;;7.33;4.42;;;0.80;82.60;;;;;;1905391;74;21101;-45
2022/01/19 05:38:33;;;;;;;3.17;2.90;;;0.80;83.70;;;;;;1905241;75;21081;-45
2022/01/19 05:41:04;;;;;;;5.17;3.67;;;0.80;84.50;;;;;;1907302;74;21042;-45
2022/01/19 05:43:35;;;;;;;5.28;3.72;;;0.80;83.70;;;;;;1924689;74;21050;-45
2022/01/19 05:46:04;;;;;;;9.95;5.62;;;0.80;84.70;;;;;;1924598;74;21128;-45
2022/01/19 05:48:35;;;;;;;7.87;5.97;;;0.90;84.80;;;;;;1924315;74;21042;-45
2022/01/19 05:51:05;;;;;;;19.50;8.03;;;1.00;84.20;;;;;;1924576;74;21077;-45
2022/01/19 05:53:35;;;;;;;6.58;3.95;;;1.00;84.30;;;;;;1924680;74;21135;-45
2022/01/19 05:56:06;;;;;;;6.62;4.30;;;1.00;84.50;;;;;;1924436;74;21075;-45
2022/01/19 05:58:37;;;;;;;4.35;3.02;;;1.10;84.70;;;;;;1923043;74;21007;-45
2022/01/19 06:01:06;;;;;;;5.58;3.80;;;1.10;84.80;;;;;;1924533;74;21023;-46
2022/01/19 06:03:35;;;;;;;18.92;11.22;;;1.20;84.90;;;;;;1924638;74;21007;-45
2022/01/19 06:06:22;;;;;;;8.55;5.37;;;1.30;85.00;;;;;;1924615;74;21048;-46
2022/01/19 06:09:20;;;;;;;7.15;5.28;;;1.40;85.60;;;;;;1923332;74;21212;-45
2022/01/19 06:11:36;;;;;;;5.17;4.17;;;1.50;85.10;;;;;;1922692;74;21480;-45
2022/01/19 06:14:06;;;;;;;4.67;4.08;;;1.50;83.20;;;;;;1924723;74;21094;-46
2022/01/19 06:16:35;;;;;;;7.75;3.35;;;1.50;84.50;;;;;;1924604;74;21018;-45
2022/01/19 06:19:04;;;;;;;6.70;3.22;;;1.60;83.70;;;;;;1924552;74;21078;-45
2022/01/19 06:21:34;;;;;;;6.65;3.72;;;1.60;83.90;;;;;;1924725;74;21092;-46
2022/01/19 06:24:03;;;;;;;4.30;3.17;;;1.50;83.50;;;;;;1924543;74;21516;-45
2022/01/19 06:26:35;;;;;;;8.00;3.98;;;1.60;83.90;;;;;;1924707;74;21022;-45
2022/01/19 06:29:04;;;;;;;5.70;2.50;;;1.60;83.20;;;;;;1924533;74;21466;-45
2022/01/19 06:31:33;;;;;;;4.30;3.05;;;1.60;82.40;;;;;;1924746;74;20998;-46
2022/01/19 06:34:04;;;;;;;5.28;3.45;;;1.50;82.00;;;;;;1924679;73;21081;-47
2022/01/19 06:36:35;;;;;;;4.30;3.67;;;1.40;82.60;;;;;;1879144;74;21019;-47
2022/01/19 06:39:09;;;;;;;3.73;2.67;;;1.40;82.90;;;;;;1924288;74;21094;-44
2022/01/19 06:41:40;;;;;;;4.15;3.55;;;1.40;81.60;;;;;;1920293;74;21453;-45
2022/01/19 06:44:09;;;;;;;3.65;3.30;;;1.30;83.70;;;;;;1924654;74;21042;-44
2022/01/19 06:46:39;;;;;;;6.42;3.05;;;1.40;83.30;;;;;;1924586;74;21132;-44
2022/01/19 06:49:08;;;;;;;7.65;3.92;;;1.40;83.80;;;;;;1924606;74;21018;-44
2022/01/19 06:51:39;;;;;;;5.37;3.87;;;1.50;84.30;;;;;;1924569;74;20999;-45
2022/01/19 06:54:08;;;;;;;6.08;3.35;;;1.60;84.50;;;;;;1924574;74;21023;-44
2022/01/19 06:56:38;;;;;;;4.72;2.92;;;1.60;82.40;;;;;;1924645;74;21105;-44
2022/01/19 06:59:21;;;;;;;3.10;2.40;;;1.70;83.00;;;;;;1923650;74;21067;-44
2022/01/19 07:02:10;;;;;;;4.00;2.75;;;1.70;81.90;;;;;;1924707;74;21101;-45
2022/01/19 07:04:49;;;;;;;3.12;2.83;;;1.70;79.70;;;;;;1923743;74;21169;-45
2022/01/19 07:07:33;;;;;;;3.20;2.90;;;1.60;82.20;;;;;;1922928;74;21030;-44
2022/01/19 07:10:06;;;;;;;3.02;2.45;;;1.60;78.50;;;;;;1924388;73;21134;-44
2022/01/19 07:12:35;;;;;;;8.50;3.20;;;1.50;80.80;;;;;;1924585;74;21122;-44
2022/01/19 07:15:06;;;;;;;4.72;3.40;;;1.50;79.70;;;;;;1924648;74;21125;-44
2022/01/19 07:17:36;;;;;;;3.87;2.47;;;1.50;80.30;;;;;;1924674;74;21022;-44
2022/01/19 07:20:07;;;;;;;4.37;2.87;;;1.40;78.90;;;;;;1924542;74;21023;-45
2022/01/19 07:22:38;;;;;;;6.60;3.75;;;1.40;79.60;;;;;;1924598;74;21031;-44
2022/01/19 07:25:09;;;;;;;4.80;3.67;;;1.40;79.30;;;;;;1924351;74;21074;-45
2022/01/19 07:27:38;;;;;;;3.70;2.37;;;1.40;79.50;;;;;;1924536;74;21477;-45
2022/01/19 07:30:09;;;;;;;2.87;2.67;;;1.40;79.80;;;;;;1924578;74;21140;-44
2022/01/19 07:32:39;;;;;;;2.45;2.17;;;1.30;78.70;;;;;;1924777;74;21088;-44
2022/01/19 07:35:11;;;;;;;4.28;2.67;;;1.30;75.60;;;;;;1924535;74;21034;-44
2022/01/19 07:37:41;;;;;;;2.37;2.10;;;1.20;77.70;;;;;;1924751;74;21020;-44
2022/01/19 07:40:12;;;;;;;3.52;2.83;;;1.10;76.50;;;;;;1924544;74;21031;-43
2022/01/19 07:42:42;;;;;;;4.10;2.65;;;1.20;78.60;;;;;;1923019;74;21098;-45
2022/01/19 07:45:13;;;;;;;2.55;2.37;;;1.10;75.50;;;;;;1924064;74;21023;-44
2022/01/19 07:47:44;;;;;;;3.25;2.47;;;1.10;76.30;;;;;;1923488;74;21088;-45
2022/01/19 07:50:15;;;;;;;7.03;2.45;;;1.10;77.50;;;;;;1923789;74;21047;-44
2022/01/19 07:52:47;;;;;;;1.62;1.52;;;1.10;78.00;;;;;;1921796;74;21519;-45
2022/01/19 07:55:20;;;;;;;4.55;2.90;;;1.10;77.10;;;;;;1922383;74;21216;-45
2022/01/19 07:57:57;;;;;;;4.85;1.92;;;1.10;77.30;;;;;;1903433;74;21047;-45
2022/01/19 08:00:35;;;;;;;4.30;2.35;;;1.10;76.30;;;;;;1923779;74;21062;-44
2022/01/19 08:03:07;;;;;;;2.22;1.72;;;1.10;76.90;;;;;;1918430;74;21104;-44
2022/01/19 08:05:40;;;;;;;1.75;1.65;;;1.10;76.40;;;;;;1921246;74;21051;-45
2022/01/19 08:08:10;;;;;;;3.50;1.98;;;1.10;72.30;;;;;;1924106;74;21007;-45
2022/01/19 08:10:42;;;;;;;4.30;3.72;;;1.00;72.20;;;;;;1923865;74;21090;-46
2022/01/19 08:13:10;;;;;;;2.20;1.98;;;1.00;72.70;;;;;;1924035;74;21454;-44
2022/01/19 08:15:40;;;;;;;5.50;3.33;;;1.00;72.60;;;;;;1923972;74;21051;-44
2022/01/19 08:18:12;;;;;;;3.75;1.75;;;0.90;72.20;;;;;;1923425;74;21072;-45
2022/01/19 08:20:43;;;;;;;2.27;1.87;;;0.90;72.60;;;;;;1923855;74;21087;-44
2022/01/19 08:23:12;;;;;;;4.22;2.10;;;0.90;72.50;;;;;;1924090;74;21079;-44
2022/01/19 08:25:43;;;;;;;1.82;1.67;;;0.80;71.70;;;;;;1920781;74;21171;-44
2022/01/19 08:28:13;;;;;;;7.42;2.98;;;0.80;71.00;;;;;;1923928;74;21047;-45
2022/01/19 08:30:44;;;;;;;2.60;2.22;;;0.80;73.80;;;;;;1923864;74;21075;-45
2022/01/19 08:33:15;;;;;;;2.83;1.80;;;0.80;72.50;;;;;;1923586;74;21146;-45
2022/01/19 08:35:52;;;;;;;3.60;2.72;;;0.80;72.90;;;;;;1923043;74;21141;-45
2022/01/19 08:38:32;;;;;;;4.03;2.85;;;0.80;73.50;;;;;;1923745;74;21071;-44
2022/01/19 08:41:03;;;;;;;3.58;3.27;;;0.80;72.90;;;;;;1918331;74;21085;-46
2022/01/19 08:43:34;;;;;;;1.90;1.37;;;0.70;73.60;;;;;;1912552;74;21057;-45
2022/01/19 08:46:04;;;;;;;3.80;2.27;;;0.70;74.90;;;;;;1901555;75;21037;-46
2022/01/19 08:48:38;;;;;;;3.17;2.40;;;0.70;75.10;;;;;;1899359;75;21090;-44
2022/01/19 08:51:14;;;;;;;2.27;1.72;;;0.70;75.40;;;;;;1902960;74;21089;-45
2022/01/19 08:53:45;;;;;;;6.20;1.85;;;0.60;75.90;;;;;;1904192;74;21118;-46
2022/01/19 08:56:16;;;;;;;2.12;1.87;;;0.60;77.40;;;;;;1902703;74;21054;-44
2022/01/19 08:58:46;;;;;;;1.60;1.50;;;0.50;77.70;;;;;;1904563;74;21123;-46
2022/01/19 09:01:15;;;;;;;1.07;0.93;;;0.40;76.90;;;;;;1904515;74;21055;-44
2022/01/19 09:03:44;;;;;;;1.47;1.37;;;0.30;73.60;;;;;;1904533;74;21118;-45
2022/01/19 09:06:13;;;;;;;2.47;1.72;;;0.20;73.90;;;;;;1904749;75;21077;-47
2022/01/19 09:08:43;;;;;;;2.30;1.77;;;0.20;75.00;;;;;;1904672;75;21015;-46
2022/01/19 09:11:12;;;;;;;5.00;2.35;;;0.20;75.00;;;;;;1904539;75;21086;-47
2022/01/19 09:13:42;;;;;;;1.70;1.60;;;0.20;76.20;;;;;;1904492;75;21075;-44
2022/01/19 09:16:11;;;;;;;4.17;2.02;;;0.20;76.70;;;;;;1904636;74;21086;-44
2022/01/19 09:18:41;;;;;;;1.77;1.67;;;0.30;76.90;;;;;;1904454;75;21028;-45
2022/01/19 09:21:10;;;;;;;0.88;0.85;;;0.30;76.50;;;;;;1904519;74;21082;-43
2022/01/19 09:23:39;;;;;;;2.90;1.40;;;0.40;74.90;;;;;;1904531;75;21023;-43
2022/01/19 09:26:09;;;;;;;1.52;1.42;;;0.40;72.60;;;;;;1904434;74;21096;-44
2022/01/19 09:28:39;;;;;;;2.50;2.27;;;0.40;71.60;;;;;;1904507;74;20996;-44
2022/01/19 09:31:12;;;;;;;1.77;1.00;;;0.50;67.50;;;;;;1904658;75;21085;-44
2022/01/19 09:33:41;;;;;;;2.15;1.42;;;0.50;68.80;;;;;;1904427;74;21036;-44
2022/01/19 09:36:35;;;;;;;3.45;1.57;;;0.50;71.10;;;;;;1904663;75;21019;-44
2022/01/19 09:38:42;;;;;;;2.92;1.95;;;0.50;68.20;;;;;;1895822;75;21015;-44
2022/01/19 09:41:12;;;;;;;1.47;1.37;;;0.50;72.10;;;;;;1904557;74;21152;-44
2022/01/19 09:43:42;;;;;;;1.65;1.55;;;0.50;71.20;;;;;;1910059;74;21109;-44
2022/01/19 09:46:11;;;;;;;3.85;2.20;;;0.50;72.40;;;;;;1923896;74;21155;-44
2022/01/19 09:48:40;;;;;;;1.42;1.12;;;0.60;70.40;;;;;;1924044;74;21003;-45
2022/01/19 09:51:12;;;;;;;2.50;1.50;;;0.60;68.70;;;;;;1924072;74;21027;-45
2022/01/19 09:53:41;;;;;;;2.15;1.85;;;0.60;68.70;;;;;;1923866;74;21477;-45
2022/01/19 09:56:11;;;;;;;2.20;1.50;;;0.60;69.20;;;;;;1923911;74;21059;-44
2022/01/19 09:58:40;;;;;;;2.40;2.20;;;0.60;68.30;;;;;;1923850;74;21066;-45
2022/01/19 10:01:10;;;;;;;4.33;2.37;;;0.70;66.50;;;;;;1923728;74;21073;-45
2022/01/19 10:03:39;;;;;;;2.58;1.75;;;0.70;69.30;;;;;;1923822;74;21090;-44
2022/01/19 10:06:11;;;;;;;2.50;2.12;;;0.80;69.20;;;;;;1924022;74;21058;-45
2022/01/19 10:08:46;;;;;;;3.35;1.37;;;0.80;67.70;;;;;;1923982;74;21027;-45
2022/01/19 10:16:58;;;;;;;1.57;1.47;;;0.90;69.30;;;;;;1924102;74;21203;-45
2022/01/19 10:16:59;;;;;;;3.77;2.42;;;0.90;66.30;;;;;;1923815;74;21038;-45
2022/01/19 10:19:34;;;;;;;2.98;1.98;;;0.90;66.00;;;;;;1923910;74;21042;-44
2022/01/19 10:22:12;;;;;;;2.67;2.33;;;0.90;66.90;;;;;;1923806;74;21191;-45
2022/01/19 10:24:56;;;;;;;2.50;1.20;;;0.90;68.10;;;;;;1923795;74;20994;-45
2022/01/19 10:27:28;;;;;;;4.20;2.23;;;0.90;66.10;;;;;;1924353;74;21151;-45
2022/01/19 10:30:00;;;;;;;2.72;1.90;;;1.00;65.70;;;;;;1923881;74;21591;-44
2022/01/19 10:32:31;;;;;;;2.10;1.47;;;1.00;67.00;;;;;;1923812;74;21469;-45
2022/01/19 10:35:18;;;;;;;1.95;1.42;;;1.10;66.90;;;;;;1923817;74;21104;-46
2022/01/19 10:37:50;;;;;;;1.40;1.30;;;1.10;65.00;;;;;;1923774;74;21453;-45
2022/01/19 10:40:22;;;;;;;2.08;1.75;;;1.20;65.00;;;;;;1923883;74;21116;-45
2022/01/19 10:42:51;;;;;;;2.52;1.92;;;1.20;63.50;;;;;;1923971;74;21092;-45
2022/01/19 10:45:21;;;;;;;1.30;1.20;;;1.10;64.70;;;;;;1909796;74;21119;-46
2022/01/19 10:47:59;;;;;;;4.08;1.40;;;1.10;65.10;;;;;;1904666;75;21039;-46
2022/01/19 10:50:33;;;;;;;2.05;1.85;;;1.10;62.40;;;;;;1904530;75;21128;-45
2022/01/19 10:53:04;;;;;;;2.05;1.32;;;1.10;64.60;;;;;;1904740;75;21012;-47
2022/01/19 10:55:45;;;;;;;1.90;1.15;;;1.10;65.00;;;;;;1903701;74;21474;-44
2022/01/19 10:58:16;;;;;;;1.72;1.60;;;1.20;64.10;;;;;;1904617;75;21019;-44
2022/01/19 11:00:54;;;;;;;2.17;1.98;;;1.20;64.70;;;;;;1904288;74;21008;-45
2022/01/19 11:03:26;;;;;;;2.72;1.90;;;1.20;64.50;;;;;;1904510;75;21411;-44
2022/01/19 11:06:00;;;;;;;1.52;1.37;;;1.20;64.40;;;;;;1904514;74;21136;-46
2022/01/19 11:08:30;;;;;;;1.72;1.00;;;1.20;62.20;;;;;;1904338;75;20987;-44
2022/01/19 11:11:02;;;;;;;6.65;2.52;;;1.10;61.60;;;;;;1904567;75;21099;-45
2022/01/19 11:13:38;;;;;;;2.27;1.87;;;1.10;63.30;;;;;;1904545;75;21039;-44
2022/01/19 11:16:03;;;;;;;1.85;1.65;;;1.10;64.00;;;;;;1904217;74;21019;-44
2022/01/19 11:18:37;;;;;;;2.10;1.98;;;1.10;63.60;;;;;;1904782;75;21152;-45
2022/01/19 11:21:12;;;;;;;2.98;1.52;;;1.10;65.00;;;;;;1904539;75;21071;-44
2022/01/19 11:24:03;;;;;;;2.00;1.70;;;1.10;65.40;;;;;;1904731;75;21481;-45
2022/01/19 11:26:35;;;;;;;2.25;1.92;;;1.20;63.30;;;;;;1904805;75;21088;-44
2022/01/19 11:29:22;;;;;;;3.67;1.37;;;1.20;63.60;;;;;;1904477;75;21075;-45
2022/01/19 11:31:53;;;;;;;1.47;1.37;;;1.20;64.50;;;;;;1906864;75;21042;-45
2022/01/19 11:34:42;;;;;;;2.20;1.95;;;1.10;64.50;;;;;;1908392;75;21026;-45
2022/01/19 11:37:11;;;;;;;3.17;2.25;;;1.10;64.80;;;;;;1900488;75;21035;-45
2022/01/19 11:39:59;;;;;;;1.72;1.60;;;1.10;65.10;;;;;;1908470;75;21066;-44
2022/01/19 11:42:29;;;;;;;2.77;2.00;;;1.20;65.50;;;;;;1908417;75;21074;-45
2022/01/19 11:44:58;;;;;;;3.00;1.82;;;1.30;64.80;;;;;;1908389;75;21066;-45
2022/01/19 11:47:32;;;;;;;1.50;1.40;;;1.30;65.70;;;;;;1908438;75;21584;-45
2022/01/19 11:50:10;;;;;;;3.67;1.67;;;1.30;66.40;;;;;;1908547;75;21536;-45
2022/01/19 11:52:47;;;;;;;2.20;2.00;;;1.20;66.80;;;;;;1908434;75;21477;-45
2022/01/19 11:55:22;;;;;;;1.52;1.42;;;1.20;67.40;;;;;;1908823;75;21357;-47
2022/01/19 11:58:11;;;;;;;2.83;2.15;;;1.10;67.80;;;;;;1908500;75;21035;-44
2022/01/19 12:00:42;;;;;;;0.82;0.82;;;1.00;68.50;;;;;;1908255;75;21073;-46
2022/01/19 12:03:29;;;;;;;2.22;2.08;;;1.00;69.60;;;;;;1901403;75;21029;-46
2022/01/19 12:05:59;;;;;;;1.30;1.20;;;1.00;69.40;;;;;;1901022;75;21134;-44
2022/01/19 12:08:36;;;;;;;1.67;1.35;;;1.00;68.90;;;;;;1904705;75;21036;-46
2022/01/19 12:11:24;;;;;;;3.72;1.90;;;1.10;68.30;;;;;;1904617;75;21066;-46
2022/01/19 12:19:39;;;;;;;2.02;1.72;;;1.10;68.70;;;;;;1897610;74;21048;-46
2022/01/19 12:22:23;;;;;;;1.77;1.45;;;1.10;68.70;;;;;;1905412;74;20995;-44
2022/01/19 12:25:00;;;;;;;2.50;1.60;;;1.10;69.00;;;;;;1905587;75;21450;-46
2022/01/19 12:27:35;;;;;;;2.42;1.87;;;1.10;68.70;;;;;;1905293;75;21097;-44
2022/01/19 12:30:06;;;;;;;2.30;1.95;;;1.00;69.40;;;;;;1905530;75;21023;-45
2022/01/19 12:32:39;;;;;;;3.98;2.50;;;1.00;70.40;;;;;;1905388;75;21035;-47
2022/01/19 12:35:17;;;;;;;2.72;2.05;;;1.10;70.30;;;;;;1905417;74;21097;-47
2022/01/19 12:37:49;;;;;;;2.15;1.62;;;1.10;69.80;;;;;;1905382;75;21069;-45
2022/01/19 12:40:24;;;;;;;1.95;1.72;;;1.00;70.70;;;;;;1905197;75;21089;-45
2022/01/19 12:42:56;;;;;;;1.95;1.62;;;1.00;70.40;;;;;;1905397;75;21016;-45
2022/01/19 12:45:31;;;;;;;2.08;1.52;;;0.90;70.20;;;;;;1910141;74;21109;-45
2022/01/19 12:48:05;;;;;;;2.80;2.22;;;0.80;70.50;;;;;;1924733;74;21039;-46
2022/01/19 12:50:40;;;;;;;2.87;2.47;;;0.80;71.00;;;;;;1924728;74;21457;-45
2022/01/19 12:53:15;;;;;;;2.45;2.25;;;0.70;71.90;;;;;;1924912;74;21023;-45
2022/01/19 12:55:47;;;;;;;2.60;1.90;;;0.70;71.40;;;;;;1924650;74;20994;-46
2022/01/19 12:58:28;;;;;;;2.05;1.62;;;0.70;71.90;;;;;;1924744;74;21070;-45
2022/01/19 13:01:00;;;;;;;3.30;2.12;;;0.70;71.80;;;;;;1924604;74;21449;-45
2022/01/19 13:03:32;;;;;;;2.25;2.02;;;0.70;72.20;;;;;;1924557;74;21084;-45
2022/01/19 13:06:07;;;;;;;1.35;1.25;;;0.60;72.20;;;;;;1924687;74;21151;-45
2022/01/19 13:08:39;;;;;;;2.10;1.87;;;0.60;72.90;;;;;;1924868;74;20991;-45
2022/01/19 13:11:27;;;;;;;3.05;2.30;;;0.70;72.50;;;;;;1924655;74;21085;-45
2022/01/19 13:14:03;;;;;;;2.87;2.58;;;0.70;72.60;;;;;;1911966;74;21076;-45
2022/01/19 13:16:38;;;;;;;20.82;18.77;;;0.70;73.20;;;;;;1924799;74;21101;-45
2022/01/19 13:19:07;;;;;;;;;;;0.60;73.60;;;;;;1927489;74;21070;-45
2022/01/19 13:21:37;;;;;;;3.22;2.27;;;0.60;72.60;;;;;;1924671;74;20088;-45
2022/01/19 13:24:26;;;;;;;2.50;2.00;;;0.60;72.80;;;;;;1924622;74;21113;-45
2022/01/19 13:26:59;;;;;;;2.80;2.00;;;0.60;73.00;;;;;;1923184;74;21031;-46
2022/01/19 13:29:37;;;;;;;2.35;2.15;;;0.60;73.40;;;;;;1924618;74;21059;-46
2022/01/19 13:32:15;;;;;;;2.20;2.00;;;0.50;73.30;;;;;;1924624;74;21035;-45
2022/01/19 13:35:04;;;;;;;3.42;2.35;;;0.50;73.40;;;;;;1924590;74;21477;-46
2022/01/19 13:37:39;;;;;;;2.35;2.00;;;0.50;73.90;;;;;;1924627;74;21555;-44
2022/01/19 13:40:13;;;;;;;3.25;2.95;;;0.50;74.30;;;;;;1921549;74;21088;-46
2022/01/19 13:43:01;;;;;;;3.60;2.65;;;0.50;74.30;;;;;;1924778;74;21449;-45
2022/01/19 13:50:52;;;;;;;3.27;2.15;;;0.40;74.90;;;;;;1905247;75;21035;-45
2022/01/19 13:53:31;;;;;;;7.28;3.47;;;0.40;75.00;;;;;;1905243;74;21007;-45
2022/01/19 13:56:02;;;;;;;2.60;2.37;;;0.40;74.90;;;;;;1905386;75;20988;-45
2022/01/19 13:58:36;;;;;;;3.87;2.10;;;0.40;75.00;;;;;;1905294;75;21015;-46
2022/01/19 14:01:10;;;;;;;3.77;2.40;;;0.30;75.10;;;;;;1905368;75;21085;-44
2022/01/19 14:03:57;;;;;;;2.67;1.77;;;0.30;75.20;;;;;;1905168;74;21163;-44
2022/01/19 14:06:28;;;;;;;3.37;2.83;;;0.30;75.20;;;;;;1905332;75;21076;-44
2022/01/19 14:09:15;;;;;;;4.65;2.75;;;0.20;74.80;;;;;;1905228;75;21088;-45
2022/01/19 14:11:47;;;;;;;3.33;3.00;;;0.20;75.00;;;;;;1905267;74;21004;-44
2022/01/19 14:14:25;;;;;;;3.10;2.80;;;0.20;75.40;;;;;;1905228;75;21020;-45
2022/01/19 14:16:56;;;;;;;3.45;1.98;;;0.20;75.50;;;;;;1905223;74;21007;-44
2022/01/19 14:19:31;;;;;;;5.97;3.10;;;0.20;75.70;;;;;;1905287;75;21093;-45
2022/01/19 14:22:10;;;;;;;3.25;2.37;;;0.10;76.10;;;;;;1905465;75;21031;-45
2022/01/19 14:24:54;;;;;;;6.08;2.70;;;0.10;76.50;;;;;;1905335;75;21015;-44
2022/01/19 14:27:26;;;;;;;3.27;2.67;;;0.10;77.00;;;;;;1905325;75;20996;-44
2022/01/19 14:30:16;;;;;;;6.20;4.17;;;0.10;76.10;;;;;;1905384;75;21089;-44
2022/01/19 14:32:57;;;;;;;7.20;3.10;;;0.10;76.10;;;;;;1811669;79;21070;-44
2022/01/19 14:35:39;;;;;;;2.72;1.98;;;0.10;76.40;;;;;;1886574;74;21019;-45
2022/01/19 14:38:16;;;;;;;3.20;2.02;;;0.00;77.00;;;;;;1904238;74;21043;-44
2022/01/19 14:41:18;;;;;;;10.93;3.67;;;0.00;77.00;;;;;;1905215;74;21540;-44
2022/01/19 14:44:08;;;;;;;2.95;2.42;;;0.00;77.40;;;;;;1904838;74;21023;-45
2022/01/19 14:46:43;;;;;;;4.10;3.12;;;0.00;77.40;;;;;;1905252;74;21124;-44
2022/01/19 14:49:13;;;;;;;5.55;3.77;;;0.00;77.50;;;;;;1924690;74;21092;-45
2022/01/19 14:51:44;;;;;;;5.00;3.27;;;-0.10;77.80;;;;;;1924777;74;21119;-44
2022/01/19 14:54:15;;;;;;;5.17;3.30;;;0.00;78.00;;;;;;1924771;74;21019;-44
2022/01/19 14:56:45;;;;;;;2.85;2.40;;;0.00;78.10;;;;;;1924764;74;21034;-44
2022/01/19 14:59:22;;;;;;;4.05;2.55;;;-0.10;78.50;;;;;;1924638;74;21136;-44